Perth Airport Weather

Latest weather

Perth Scone (EGPT) Weather updates coming soon.

Below are some surrounding airfields, alternative you can view our webcam below or contact Perth radio operator who can assist.

Dundee Weather - Distance 12nm Track 086'

[Source: ADDS]
METAR
EGPN 251420Z 00000KT 9999 BKN022 18/15 Q1009 =
EGPN 251102Z 2512/2516 24005KT 9999 FEW015 SCT030 PROB30 TEMPO 2512/2516 8000 -RA BKN012
TAF
EGPN 251102Z 2512/2516 24005KT 9999 FEW015 SCT030 PROB30 TEMPO 2512/2516 8000 -RA BKN012 =

RAF Leuchars Weather - Distance 17nm Track 103'

[Source: ADDS]
METAR
EGQL 251850Z 19005KT 9999 OVC021 18/14 Q1008 WHT =
EGQL 251621Z 2518/2603 21008KT 9999 FEW018 TEMPO 2518/2603 SCT018 PROB30 TEMPO 2522/2603 7000 -RADZ SCT010 BKN015
TAF
EGQL 251621Z 2518/2603 21008KT 9999 FEW018 TEMPO 2518/2603 SCT018 PROB30 TEMPO 2522/2603 7000 -RADZ SCT010 BKN015 =

Edinburgh Weather - Distance 29nm Track 180'

[Source: ADDS]
METAR
EGPH 251920Z 22006KT 9999 -RA FEW017 OVC031 17/16 Q1009 =
EGPH 251656Z 2518/2618 23009KT 9999 SCT020 PROB40 TEMPO 2518/2606 7000 -RA BKN012 BECMG 2609/2612 17015KT PROB30 TEMPO 2612/2616 18018G28KT 7000 -RA BKN012 TEMPO 2616/2618 18018G28KT 6000 RA BKN014
TAF
EGPH 251656Z 2518/2618 23009KT 9999 SCT020 PROB40 TEMPO 2518/2606 7000 -RA BKN012 BECMG 2609/2612 17015KT PROB30 TEMPO 2612/2616 18018G28KT 7000 -RA BKN012 TEMPO 2616/2618 18018G28KT 6000 RA BKN014 =

Aberdeen Weather - Distance 60nm Track 040'

[Source: ADDS]
METAR
EGPD 251920Z AUTO VRB03KT 9999 BKN022 BKN028 BKN033 15/13 Q1008 NOSIG =
EGPD 251656Z 2518/2618 18009KT 9999 FEW035 PROB30 TEMPO 2602/2608 7000 -RA BKN008 TEMPO 2609/2618 18015G25KT
TAF
EGPD 251656Z 2518/2618 18009KT 9999 FEW035 PROB30 TEMPO 2602/2608 7000 -RA BKN008 TEMPO 2609/2618 18015G25KT =

Drone Tour of Perth Airport

Watch a full aerial tour of the Perth Airport runways 15/33, 09/27, 03/21. Follow our based Piper PA28-161 Warrior taking you on a tour of Perth Scone Aerodrome. The footage is captured in stunning 4K quality by the DJI Mavic Drone.
Morris Leslie Group Logo
ACS Engineering
Scotland's Charity Air Ambulance Logo
Air Service Training Logo

Get started with your first flight lesson with ACS Flight Training

Copyright 2021. ACS Aviation - Website designed by Xtensive